createdAt,value
2022-10-23T00:00:20.453Z,99.38
2022-10-23T00:03:22.683Z,99.14
2022-10-23T00:06:25.911Z,99.42
2022-10-23T00:09:28.068Z,99.48
2022-10-23T00:12:30.350Z,99.68
2022-10-23T00:15:35.170Z,99.54
2022-10-23T00:18:38.421Z,99.87
2022-10-23T00:21:41.027Z,99.82
2022-10-23T00:24:43.267Z,99.63
2022-10-23T00:27:45.494Z,99.15
2022-10-23T00:30:47.667Z,98.64
2022-10-23T00:33:51.385Z,99.29
2022-10-23T00:36:53.548Z,99.39
2022-10-23T00:39:55.729Z,99.33
2022-10-23T00:42:57.913Z,98.94
2022-10-23T00:46:00.085Z,98.84
2022-10-23T00:49:03.425Z,98.45
2022-10-23T00:52:09.239Z,98.65
2022-10-23T00:55:11.459Z,98.58
2022-10-23T00:58:14.961Z,98.93
2022-10-23T01:01:19.965Z,98.88
2022-10-23T01:04:23.595Z,98.71
2022-10-23T01:07:50.335Z,98.79
2022-10-23T01:11:07.733Z,98.57
2022-10-23T01:14:16.133Z,98.47
2022-10-23T01:17:27.224Z,99.79
2022-10-23T01:20:43.806Z,99.99
2022-10-23T01:23:51.829Z,99.99
2022-10-23T01:27:19.967Z,99.99
2022-10-23T01:30:22.836Z,99.99
2022-10-23T01:33:31.860Z,99.99
2022-10-23T01:36:37.257Z,99.99
2022-10-23T01:39:46.814Z,99.99
2022-10-23T01:42:55.006Z,99.99
2022-10-23T01:46:05.588Z,99.99
2022-10-23T01:49:13.299Z,99.99
2022-10-23T01:52:18.078Z,99.99
2022-10-23T01:55:23.859Z,99.99
2022-10-23T01:58:28.089Z,99.99
2022-10-23T02:01:33.121Z,99.96
2022-10-23T02:05:03.946Z,99.99
2022-10-23T02:08:07.166Z,99.99
2022-10-23T02:11:12.859Z,99.99
2022-10-23T02:14:28.615Z,99.99
2022-10-23T02:17:51.259Z,99.99
2022-10-23T02:21:02.058Z,99.99
2022-10-23T02:24:11.692Z,99.79
2022-10-23T02:27:34.009Z,99.38
2022-10-23T02:30:41.300Z,99.59
2022-10-23T02:33:47.161Z,99.63
2022-10-23T02:36:49.388Z,99.79
2022-10-23T02:39:55.016Z,99.45
2022-10-23T02:43:10.691Z,99.25
2022-10-23T02:46:27.792Z,99.26
2022-10-23T02:49:57.628Z,99.99
2022-10-23T02:53:05.675Z,99.99
2022-10-23T02:56:17.972Z,99.99
2022-10-23T02:59:27.797Z,99.99
2022-10-23T03:02:44.060Z,99.99
2022-10-23T03:05:48.320Z,99.85
2022-10-23T03:08:54.404Z,99.95
2022-10-23T03:11:56.710Z,99.83
2022-10-23T03:14:59.159Z,99.99
2022-10-23T03:18:01.327Z,99.99
2022-10-23T03:21:04.335Z,99.99
2022-10-23T03:24:09.113Z,99.99
2022-10-23T03:27:16.598Z,99.99
2022-10-23T03:30:19.687Z,99.99
2022-10-23T03:33:25.885Z,99.99
2022-10-23T03:36:28.037Z,99.99
2022-10-23T03:39:30.247Z,99.99
2022-10-23T03:42:32.535Z,99.99
2022-10-23T03:45:34.780Z,99.99
2022-10-23T03:48:38.287Z,99.99
2022-10-23T03:51:41.788Z,99.99
2022-10-23T03:54:43.991Z,99.99
2022-10-23T03:57:46.307Z,99.99
2022-10-23T04:00:48.531Z,99.99
2022-10-23T04:03:50.842Z,99.99
2022-10-23T04:06:53.120Z,99.99
2022-10-23T04:09:56.168Z,99.99
2022-10-23T04:12:59.471Z,99.99
2022-10-23T04:16:02.963Z,99.99
2022-10-23T04:19:05.152Z,99.99
2022-10-23T04:22:07.780Z,99.99
2022-10-23T04:25:16.729Z,99.99
2022-10-23T04:28:23.090Z,99.99
2022-10-23T04:31:25.471Z,99.99
2022-10-23T04:34:27.653Z,99.99
2022-10-23T04:37:29.877Z,99.99
2022-10-23T04:40:32.223Z,99.99
2022-10-23T04:43:34.964Z,99.99
2022-10-23T04:46:38.877Z,99.99
2022-10-23T04:49:41.332Z,99.99
2022-10-23T04:53:02.044Z,99.99
2022-10-23T04:56:14.990Z,99.99
2022-10-23T04:59:26.228Z,99.99
2022-10-23T05:02:28.411Z,99.99
2022-10-23T05:05:30.722Z,99.99
2022-10-23T05:08:41.346Z,99.99
2022-10-23T05:12:16.083Z,99.99
2022-10-23T05:15:18.315Z,99.99
2022-10-23T05:18:24.945Z,99.99
2022-10-23T05:21:31.925Z,99.99
2022-10-23T05:24:34.988Z,99.99
2022-10-23T05:27:41.254Z,99.99
2022-10-23T05:30:46.721Z,99.99
2022-10-23T05:33:49.861Z,99.99
2022-10-23T05:36:55.226Z,99.99
2022-10-23T05:39:59.402Z,99.99
2022-10-23T05:43:01.690Z,99.99
2022-10-23T05:46:24.139Z,99.99
2022-10-23T05:50:01.607Z,99.99
2022-10-23T05:53:22.132Z,99.99
2022-10-23T05:56:43.145Z,99.99
2022-10-23T05:59:54.953Z,99.99
2022-10-23T06:03:23.210Z,99.64
2022-10-23T06:06:25.486Z,99.79
2022-10-23T06:09:27.776Z,99.99
2022-10-23T06:12:33.432Z,99.99
2022-10-23T06:15:35.951Z,99.99
2022-10-23T06:18:44.650Z,99.89
2022-10-23T06:21:49.847Z,99.96
2022-10-23T06:24:52.685Z,99.99
2022-10-23T06:27:59.798Z,99.85
2022-10-23T06:31:06.612Z,99.56
2022-10-23T06:34:11.660Z,99.26
2022-10-23T06:37:14.265Z,99.31
2022-10-23T06:40:21.514Z,98.59
2022-10-23T06:43:33.397Z,98.33
2022-10-23T06:46:55.708Z,98.59
2022-10-23T06:50:21.007Z,98.82
2022-10-23T06:53:24.913Z,98.90
2022-10-23T06:56:35.210Z,99.09
2022-10-23T06:59:40.699Z,99.58
2022-10-23T07:02:44.612Z,98.94
2022-10-23T07:05:49.767Z,98.44
2022-10-23T07:08:52.279Z,98.62
2022-10-23T07:12:12.718Z,99.06
2022-10-23T07:15:21.972Z,98.89
2022-10-23T07:18:24.247Z,98.74
2022-10-23T07:21:46.370Z,98.22
2022-10-23T07:25:11.618Z,99.39
2022-10-23T07:28:15.435Z,99.32
2022-10-23T07:31:17.853Z,98.91
2022-10-23T07:34:38.568Z,98.42
2022-10-23T07:38:03.442Z,97.93
2022-10-23T07:41:11.642Z,98.19
2022-10-23T07:44:15.124Z,98.22
2022-10-23T07:47:17.540Z,97.19
2022-10-23T07:50:23.842Z,97.74
2022-10-23T07:53:26.028Z,97.34
2022-10-23T07:56:31.441Z,96.98
2022-10-23T07:59:52.276Z,97.69
2022-10-23T08:02:56.783Z,97.02
2022-10-23T08:05:59.817Z,96.99
2022-10-23T08:09:06.296Z,96.49
2022-10-23T08:12:10.578Z,96.91
2022-10-23T08:15:12.891Z,97.17
2022-10-23T08:18:26.975Z,98.12
2022-10-23T08:21:32.347Z,98.61
2022-10-23T08:24:34.590Z,98.99
2022-10-23T08:27:36.870Z,98.68
2022-10-23T08:30:39.452Z,97.75
2022-10-23T08:33:42.969Z,97.77
2022-10-23T08:36:45.577Z,96.34
2022-10-23T08:39:51.291Z,96.90
2022-10-23T08:43:10.402Z,96.05
2022-10-23T08:46:19.975Z,97.07
2022-10-23T08:49:56.552Z,96.32
2022-10-23T08:53:41.123Z,96.81
2022-10-23T08:56:48.211Z,97.30
2022-10-23T09:00:04.160Z,97.37
2022-10-23T09:03:06.443Z,97.55
2022-10-23T09:06:25.333Z,97.56
2022-10-23T09:09:48.910Z,95.52
2022-10-23T09:12:51.234Z,97.07
2022-10-23T09:15:59.730Z,96.13
2022-10-23T09:19:02.567Z,95.79
2022-10-23T09:22:05.908Z,96.21
2022-10-23T09:25:16.114Z,96.14
2022-10-23T09:28:27.250Z,95.46
2022-10-23T09:31:29.415Z,95.41
2022-10-23T09:34:34.286Z,96.67
2022-10-23T09:37:46.206Z,96.15
2022-10-23T09:40:50.087Z,95.24
2022-10-23T09:44:07.613Z,94.65
2022-10-23T09:47:12.062Z,94.55
2022-10-23T09:50:20.389Z,93.69
2022-10-23T09:53:50.495Z,93.94
2022-10-23T09:56:54.993Z,93.36
2022-10-23T10:00:01.553Z,92.84
2022-10-23T10:03:23.266Z,92.47
2022-10-23T10:09:43.832Z,94.09
2022-10-23T10:12:59.094Z,94.57
2022-10-23T10:16:14.135Z,92.10
2022-10-23T10:19:25.519Z,92.82
2022-10-23T10:22:49.691Z,93.21
2022-10-23T10:26:00.168Z,92.34
2022-10-23T10:29:08.039Z,91.04
2022-10-23T10:32:38.894Z,90.66
2022-10-23T10:35:43.199Z,92.77
2022-10-23T10:38:50.741Z,90.37
2022-10-23T10:42:25.836Z,90.42
2022-10-23T10:45:33.990Z,89.08
2022-10-23T10:48:57.020Z,90.42
2022-10-23T10:52:31.114Z,90.85
2022-10-23T10:55:40.730Z,88.15
2022-10-23T10:58:48.285Z,84.84
2022-10-23T11:01:59.785Z,85.48
2022-10-23T11:05:46.322Z,87.46
2022-10-23T11:08:57.349Z,87.57
2022-10-23T11:12:00.107Z,88.70
2022-10-23T11:15:02.350Z,87.95
2022-10-23T11:18:13.446Z,88.47
2022-10-23T11:21:30.723Z,88.27
2022-10-23T11:24:52.367Z,87.85
2022-10-23T11:28:11.360Z,87.65
2022-10-23T11:31:35.471Z,88.34
2022-10-23T11:34:52.587Z,88.26
2022-10-23T11:38:20.108Z,88.21
2022-10-23T11:41:27.130Z,88.87
2022-10-23T11:44:36.651Z,88.38
2022-10-23T11:47:40.799Z,88.45
2022-10-23T11:50:46.221Z,87.82
2022-10-23T11:53:48.399Z,87.31
2022-10-23T11:57:10.066Z,88.23
2022-10-23T12:00:23.295Z,88.53
2022-10-23T12:03:35.147Z,89.59
2022-10-23T12:06:52.457Z,89.03
2022-10-23T12:10:00.305Z,89.02
2022-10-23T12:13:05.428Z,88.90
2022-10-23T12:16:07.810Z,89.33
2022-10-23T12:19:21.227Z,89.34
2022-10-23T12:22:28.169Z,89.72
2022-10-23T12:26:15.051Z,90.24
2022-10-23T12:29:23.056Z,91.35
2022-10-23T12:32:46.689Z,91.12
2022-10-23T12:36:33.371Z,91.21
2022-10-23T12:39:38.949Z,91.90
2022-10-23T12:42:41.705Z,92.97
2022-10-23T12:45:44.696Z,93.02
2022-10-23T12:48:55.040Z,93.49
2022-10-23T12:52:16.468Z,93.42
2022-10-23T12:55:18.947Z,93.58
2022-10-23T12:58:32.716Z,93.63
2022-10-23T13:01:40.434Z,92.74
2022-10-23T13:04:45.313Z,92.00
2022-10-23T13:07:48.503Z,92.47
2022-10-23T13:10:54.198Z,92.82
2022-10-23T13:13:57.865Z,92.95
2022-10-23T13:17:06.484Z,92.96
2022-10-23T13:20:17.543Z,92.92
2022-10-23T13:23:32.917Z,92.41
2022-10-23T13:26:45.112Z,92.45
2022-10-23T13:29:47.515Z,92.26
2022-10-23T13:32:49.678Z,92.31
2022-10-23T13:36:00.188Z,92.10
2022-10-23T13:39:12.979Z,91.34
2022-10-23T13:42:16.112Z,91.52
2022-10-23T13:45:26.758Z,91.06
2022-10-23T13:48:29.427Z,90.40
2022-10-23T13:51:40.181Z,90.57
2022-10-23T13:54:44.905Z,90.44
2022-10-23T13:57:47.132Z,90.36
2022-10-23T14:00:51.174Z,90.55
2022-10-23T14:03:54.560Z,91.15
2022-10-23T14:06:58.509Z,91.73
2022-10-23T14:10:00.768Z,91.97
2022-10-23T14:13:02.959Z,92.03
2022-10-23T14:16:05.834Z,92.08
2022-10-23T14:19:08.660Z,92.37
2022-10-23T14:22:10.913Z,92.09
2022-10-23T14:25:13.154Z,92.40
2022-10-23T14:28:16.163Z,92.64
2022-10-23T14:31:18.610Z,92.93
2022-10-23T14:34:21.021Z,93.09
2022-10-23T14:37:23.258Z,93.38
2022-10-23T14:40:25.566Z,93.15
2022-10-23T14:43:27.857Z,92.85
2022-10-23T14:46:30.072Z,92.66
2022-10-23T14:49:33.457Z,92.46
2022-10-23T14:52:35.611Z,92.78
2022-10-23T14:55:37.939Z,93.23
2022-10-23T14:58:40.511Z,92.89
2022-10-23T15:01:45.920Z,93.53
2022-10-23T15:04:50.320Z,93.88
2022-10-23T15:07:52.498Z,93.94
2022-10-23T15:11:04.230Z,94.55
2022-10-23T15:14:14.497Z,94.62
2022-10-23T15:17:16.655Z,94.85
2022-10-23T15:20:18.821Z,94.94
2022-10-23T15:23:20.983Z,94.91
2022-10-23T15:26:25.401Z,95.05
2022-10-23T15:29:27.608Z,95.32
2022-10-23T15:32:29.791Z,95.56
2022-10-23T15:35:32.126Z,95.64
2022-10-23T15:38:34.273Z,95.50
2022-10-23T15:41:38.546Z,95.76
2022-10-23T15:44:41.312Z,95.72
2022-10-23T15:47:43.770Z,95.90
2022-10-23T15:50:45.998Z,95.93
2022-10-23T15:53:48.395Z,95.83
2022-10-23T15:56:53.490Z,95.96
2022-10-23T15:59:55.692Z,95.64
2022-10-23T16:02:58.086Z,95.89
2022-10-23T16:06:07.629Z,95.69
2022-10-23T16:09:09.842Z,95.66
2022-10-23T16:12:12.031Z,95.74
2022-10-23T16:15:15.487Z,95.88
2022-10-23T16:18:18.786Z,96.33
2022-10-23T16:21:23.621Z,96.68
2022-10-23T16:24:25.855Z,96.98
2022-10-23T16:27:28.033Z,97.14
2022-10-23T16:30:30.432Z,97.09
2022-10-23T16:33:32.598Z,97.35
2022-10-23T16:36:38.970Z,97.56
2022-10-23T16:40:08.913Z,97.49
2022-10-23T16:43:30.055Z,97.61
2022-10-23T16:46:40.274Z,97.62
2022-10-23T16:49:42.633Z,97.72
2022-10-23T16:52:45.196Z,97.61
2022-10-23T16:55:47.666Z,97.01
2022-10-23T16:58:50.341Z,96.92
2022-10-23T17:01:53.268Z,96.72
2022-10-23T17:04:55.529Z,97.03
2022-10-23T17:07:57.690Z,97.30
2022-10-23T17:11:10.830Z,97.51
2022-10-23T17:14:18.323Z,97.58
2022-10-23T17:17:20.668Z,97.36
2022-10-23T17:20:22.943Z,97.41
2022-10-23T17:23:26.327Z,97.52
2022-10-23T17:26:28.747Z,97.60
2022-10-23T17:29:30.931Z,97.41
2022-10-23T17:32:35.932Z,97.64
2022-10-23T17:35:39.480Z,98.07
2022-10-23T17:38:43.495Z,98.33
2022-10-23T17:41:46.292Z,98.48
2022-10-23T17:44:48.453Z,97.69
2022-10-23T17:47:50.622Z,97.64
2022-10-23T17:51:08.484Z,98.23
2022-10-23T17:54:12.200Z,98.25
2022-10-23T17:57:14.391Z,98.17
2022-10-23T18:00:16.924Z,98.15
2022-10-23T18:03:19.920Z,98.08
2022-10-23T18:06:28.889Z,98.12
2022-10-23T18:09:32.032Z,98.22
2022-10-23T18:12:34.241Z,98.19
2022-10-23T18:15:36.634Z,98.21
2022-10-23T18:18:40.610Z,98.26
2022-10-23T18:21:42.850Z,98.22
2022-10-23T18:24:45.007Z,97.99
2022-10-23T18:27:47.159Z,97.93
2022-10-23T18:30:52.122Z,97.75
2022-10-23T18:33:59.025Z,97.66
2022-10-23T18:37:01.327Z,97.33
2022-10-23T18:40:04.184Z,97.10
2022-10-23T18:43:11.661Z,96.68
2022-10-23T18:46:18.070Z,96.41
2022-10-23T18:49:20.499Z,95.99
2022-10-23T18:52:22.665Z,96.16
2022-10-23T18:55:24.864Z,95.99
2022-10-23T18:58:27.058Z,95.91
2022-10-23T19:01:30.650Z,95.87
2022-10-23T19:04:35.613Z,95.90
2022-10-23T19:07:43.739Z,95.98
2022-10-23T19:10:47.115Z,95.86
2022-10-23T19:13:49.648Z,96.00
2022-10-23T19:16:54.455Z,95.78
2022-10-23T19:20:12.524Z,96.02
2022-10-23T19:23:15.963Z,95.80
2022-10-23T19:26:18.326Z,96.05
2022-10-23T19:29:23.216Z,95.97
2022-10-23T19:32:25.373Z,96.03
2022-10-23T19:35:27.791Z,96.10
2022-10-23T19:38:30.048Z,95.94
2022-10-23T19:41:39.144Z,96.02
2022-10-23T19:44:41.359Z,95.79
2022-10-23T19:47:50.160Z,95.77
2022-10-23T19:50:52.335Z,95.61
2022-10-23T19:53:54.918Z,95.70
2022-10-23T19:56:57.222Z,95.73
2022-10-23T20:00:00.154Z,95.62
2022-10-23T20:03:02.473Z,95.61
2022-10-23T20:06:07.457Z,95.75
2022-10-23T20:09:09.907Z,95.46
2022-10-23T20:12:12.083Z,95.57
2022-10-23T20:15:17.505Z,95.67
2022-10-23T20:18:19.670Z,95.83
2022-10-23T20:21:22.582Z,95.91
2022-10-23T20:24:24.804Z,96.01
2022-10-23T20:27:27.763Z,96.10
2022-10-23T20:30:30.057Z,96.34
2022-10-23T20:33:32.261Z,96.44
2022-10-23T20:36:45.418Z,96.56
2022-10-23T20:39:49.108Z,96.58
2022-10-23T20:42:51.237Z,96.94
2022-10-23T20:45:53.397Z,97.07
2022-10-23T20:48:55.551Z,97.22
2022-10-23T20:51:57.784Z,97.33
2022-10-23T20:54:59.993Z,97.41
2022-10-23T20:58:09.026Z,97.73
2022-10-23T21:01:14.636Z,97.85
2022-10-23T21:04:19.861Z,97.86
2022-10-23T21:07:22.027Z,97.73
2022-10-23T21:10:24.218Z,97.57
2022-10-23T21:13:26.922Z,97.51
2022-10-23T21:16:33.144Z,97.50
2022-10-23T21:19:35.368Z,97.35
2022-10-23T21:22:37.531Z,97.34
2022-10-23T21:25:40.901Z,97.29
2022-10-23T21:28:55.621Z,97.17
2022-10-23T21:32:03.253Z,97.03
2022-10-23T21:35:06.066Z,96.91
2022-10-23T21:38:08.479Z,96.92
2022-10-23T21:41:17.424Z,96.85
2022-10-23T21:44:19.649Z,96.89
2022-10-23T21:47:21.939Z,97.07
2022-10-23T21:50:24.104Z,97.12
2022-10-23T21:53:26.743Z,97.27
2022-10-23T21:56:41.677Z,97.24
2022-10-23T21:59:43.902Z,97.27
2022-10-23T22:02:46.497Z,97.40
2022-10-23T22:05:49.003Z,97.44
2022-10-23T22:08:52.073Z,97.55
2022-10-23T22:11:55.248Z,97.53
2022-10-23T22:14:57.719Z,97.67
2022-10-23T22:18:00.480Z,97.79
2022-10-23T22:21:05.165Z,97.90
2022-10-23T22:24:08.352Z,97.92
2022-10-23T22:27:10.503Z,98.12
2022-10-23T22:30:12.936Z,98.31
2022-10-23T22:33:15.107Z,98.42
2022-10-23T22:36:18.080Z,98.49
2022-10-23T22:39:20.622Z,98.64
2022-10-23T22:42:22.789Z,98.87
2022-10-23T22:45:24.931Z,98.96
2022-10-23T22:48:27.653Z,99.17
2022-10-23T22:51:30.289Z,99.28
2022-10-23T22:54:32.530Z,99.40
2022-10-23T22:57:34.698Z,99.46
2022-10-23T23:00:42.841Z,99.43
2022-10-23T23:03:46.698Z,99.41
2022-10-23T23:06:48.960Z,99.49
2022-10-23T23:09:51.111Z,99.44
2022-10-23T23:12:53.282Z,99.42
2022-10-23T23:15:56.140Z,99.53
2022-10-23T23:19:00.715Z,99.64
2022-10-23T23:22:03.485Z,99.62
2022-10-23T23:25:06.101Z,99.69
2022-10-23T23:28:08.423Z,99.80
2022-10-23T23:31:28.431Z,99.91
2022-10-23T23:34:30.653Z,99.99
2022-10-23T23:37:32.811Z,99.99
2022-10-23T23:40:35.199Z,99.99
2022-10-23T23:43:37.378Z,99.99
2022-10-23T23:46:39.527Z,99.99
2022-10-23T23:49:41.705Z,99.99
2022-10-23T23:52:44.281Z,99.99
2022-10-23T23:55:46.549Z,99.99
2022-10-23T23:58:48.762Z,99.99
